sensor_id;sensor_type;location;lat;lon;timestamp;temperature;humidity
6843;DHT22;3460;52.028;8.916;2024-01-07T06:36:01;-1.00;99.90
6843;DHT22;3460;52.028;8.916;2024-01-07T06:38:28;-1.10;99.90
6843;DHT22;3460;52.028;8.916;2024-01-07T06:40:55;-1.10;99.90
6843;DHT22;3460;52.028;8.916;2024-01-07T06:43:26;-1.10;99.90
6843;DHT22;3460;52.028;8.916;2024-01-07T06:45:53;-1.10;99.90
6843;DHT22;3460;52.028;8.916;2024-01-07T06:48:20;-1.10;99.90
6843;DHT22;3460;52.028;8.916;2024-01-07T06:50:46;-1.10;99.90
6843;DHT22;3460;52.028;8.916;2024-01-07T06:53:14;-1.20;99.90
6843;DHT22;3460;52.028;8.916;2024-01-07T06:55:42;-1.30;99.90
6843;DHT22;3460;52.028;8.916;2024-01-07T06:58:08;-1.30;99.90
6843;DHT22;3460;52.028;8.916;2024-01-07T07:00:35;-1.20;99.90
6843;DHT22;3460;52.028;8.916;2024-01-07T07:03:02;-1.20;99.90
6843;DHT22;3460;52.028;8.916;2024-01-07T07:05:29;-1.20;99.90
6843;DHT22;3460;52.028;8.916;2024-01-07T07:07:55;-1.20;99.90
6843;DHT22;3460;52.028;8.916;2024-01-07T07:10:23;-1.20;99.90
6843;DHT22;3460;52.028;8.916;2024-01-07T07:12:50;-1.20;99.90
6843;DHT22;3460;52.028;8.916;2024-01-07T07:15:17;-1.20;99.90
6843;DHT22;3460;52.028;8.916;2024-01-07T07:17:45;-1.20;99.90
6843;DHT22;3460;52.028;8.916;2024-01-07T07:20:12;-1.20;99.90
6843;DHT22;3460;52.028;8.916;2024-01-07T07:22:40;-1.20;99.90
6843;DHT22;3460;52.028;8.916;2024-01-07T07:25:07;-1.20;99.90
6843;DHT22;3460;52.028;8.916;2024-01-07T07:27:36;-1.20;99.90
6843;DHT22;3460;52.028;8.916;2024-01-07T07:30:03;-1.20;99.90
6843;DHT22;3460;52.028;8.916;2024-01-07T07:32:30;-1.20;98.70
6843;DHT22;3460;52.028;8.916;2024-01-07T07:34:57;-1.20;76.20
6843;DHT22;3460;52.028;8.916;2024-01-07T07:37:24;-1.20;99.90
6843;DHT22;3460;52.028;8.916;2024-01-07T07:39:51;-1.20;96.20
6843;DHT22;3460;52.028;8.916;2024-01-07T07:42:18;-1.20;99.90
6843;DHT22;3460;52.028;8.916;2024-01-07T07:44:46;-1.20;99.90
6843;DHT22;3460;52.028;8.916;2024-01-07T07:47:13;-1.20;1.00
6843;DHT22;3460;52.028;8.916;2024-01-07T07:49:40;-1.30;95.30
6843;DHT22;3460;52.028;8.916;2024-01-07T07:52:07;-1.40;6.80
6843;DHT22;3460;52.028;8.916;2024-01-07T07:54:33;-1.30;27.60
6843;DHT22;3460;52.028;8.916;2024-01-07T07:57:00;-1.30;13.50
6843;DHT22;3460;52.028;8.916;2024-01-07T07:59:26;-1.30;1.00
6843;DHT22;3460;52.028;8.916;2024-01-07T08:01:54;-1.40;1.00
6843;DHT22;3460;52.028;8.916;2024-01-07T08:04:21;-1.40;1.00
6843;DHT22;3460;52.028;8.916;2024-01-07T08:06:48;-1.40;1.00
6843;DHT22;3460;52.028;8.916;2024-01-07T08:09:15;-1.40;1.00
6843;DHT22;3460;52.028;8.916;2024-01-07T08:11:41;-1.40;1.00
6843;DHT22;3460;52.028;8.916;2024-01-07T08:14:08;-1.40;1.00
6843;DHT22;3460;52.028;8.916;2024-01-07T08:16:35;-1.50;1.00
6843;DHT22;3460;52.028;8.916;2024-01-07T08:19:03;-1.50;1.00
6843;DHT22;3460;52.028;8.916;2024-01-07T08:21:30;-1.50;1.00
6843;DHT22;3460;52.028;8.916;2024-01-07T08:23:56;-1.50;99.90
6843;DHT22;3460;52.028;8.916;2024-01-07T08:26:23;-1.60;99.90
6843;DHT22;3460;52.028;8.916;2024-01-07T08:28:50;-1.60;1.00
6843;DHT22;3460;52.028;8.916;2024-01-07T08:31:18;-1.50;1.00
6843;DHT22;3460;52.028;8.916;2024-01-07T08:33:44;-1.40;1.00
6843;DHT22;3460;52.028;8.916;2024-01-07T08:36:13;-1.40;99.90
6843;DHT22;3460;52.028;8.916;2024-01-07T08:38:39;-1.50;99.90
6843;DHT22;3460;52.028;8.916;2024-01-07T08:41:06;-1.50;99.90
6843;DHT22;3460;52.028;8.916;2024-01-07T08:43:33;-1.50;99.90
6843;DHT22;3460;52.028;8.916;2024-01-07T08:46:00;-1.40;1.00
6843;DHT22;3460;52.028;8.916;2024-01-07T08:48:27;-1.40;1.00
6843;DHT22;3460;52.028;8.916;2024-01-07T08:50:54;-1.60;99.90
6843;DHT22;3460;52.028;8.916;2024-01-07T08:53:22;-1.60;1.00
6843;DHT22;3460;52.028;8.916;2024-01-07T08:55:49;-1.50;99.90
6843;DHT22;3460;52.028;8.916;2024-01-07T08:58:16;-1.40;99.90
6843;DHT22;3460;52.028;8.916;2024-01-07T09:00:43;-1.30;99.90
6843;DHT22;3460;52.028;8.916;2024-01-07T09:03:10;-1.40;99.90
6843;DHT22;3460;52.028;8.916;2024-01-07T09:05:37;-1.40;99.90
6843;DHT22;3460;52.028;8.916;2024-01-07T09:08:04;-1.40;99.90
6843;DHT22;3460;52.028;8.916;2024-01-07T09:10:33;-1.30;99.90
6843;DHT22;3460;52.028;8.916;2024-01-07T09:13:00;-1.40;99.90
6843;DHT22;3460;52.028;8.916;2024-01-07T09:15:27;-1.40;99.90
6843;DHT22;3460;52.028;8.916;2024-01-07T09:17:53;-1.40;99.90
6843;DHT22;3460;52.028;8.916;2024-01-07T09:20:20;-1.40;99.90
6843;DHT22;3460;52.028;8.916;2024-01-07T09:22:47;-1.50;99.90
6843;DHT22;3460;52.028;8.916;2024-01-07T09:25:14;-1.40;99.90
6843;DHT22;3460;52.028;8.916;2024-01-07T09:27:43;-1.40;99.90
6843;DHT22;3460;52.028;8.916;2024-01-07T09:30:11;-1.50;99.90
6843;DHT22;3460;52.028;8.916;2024-01-07T09:32:40;-1.40;99.90
6843;DHT22;3460;52.028;8.916;2024-01-07T09:35:07;-1.40;99.90
6843;DHT22;3460;52.028;8.916;2024-01-07T09:37:34;-1.40;99.90
6843;DHT22;3460;52.028;8.916;2024-01-07T09:40:01;-1.40;99.90
6843;DHT22;3460;52.028;8.916;2024-01-07T09:42:30;-1.40;99.90
6843;DHT22;3460;52.028;8.916;2024-01-07T09:45:00;-1.40;99.90
6843;DHT22;3460;52.028;8.916;2024-01-07T09:47:28;-1.40;99.90
6843;DHT22;3460;52.028;8.916;2024-01-07T09:49:55;-1.40;99.90
6843;DHT22;3460;52.028;8.916;2024-01-07T09:52:22;-1.40;99.90
6843;DHT22;3460;52.028;8.916;2024-01-07T09:54:53;-1.40;99.90
6843;DHT22;3460;52.028;8.916;2024-01-07T09:57:20;-1.50;99.90
6843;DHT22;3460;52.028;8.916;2024-01-07T09:59:47;-1.60;99.90
6843;DHT22;3460;52.028;8.916;2024-01-07T10:02:16;-1.50;99.90
6843;DHT22;3460;52.028;8.916;2024-01-07T10:04:43;-1.40;99.90
6843;DHT22;3460;52.028;8.916;2024-01-07T10:07:10;-1.40;99.90
6843;DHT22;3460;52.028;8.916;2024-01-07T10:09:40;-1.40;99.90
6843;DHT22;3460;52.028;8.916;2024-01-07T10:12:08;-1.40;1.00
6843;DHT22;3460;52.028;8.916;2024-01-07T10:14:38;-1.40;99.90
6843;DHT22;3460;52.028;8.916;2024-01-07T10:17:16;-1.30;99.90
6843;DHT22;3460;52.028;8.916;2024-01-07T10:19:43;-1.30;99.90
6843;DHT22;3460;52.028;8.916;2024-01-07T10:22:12;-1.30;1.00
6843;DHT22;3460;52.028;8.916;2024-01-07T10:24:40;-1.30;1.00
6843;DHT22;3460;52.028;8.916;2024-01-07T10:27:08;-1.30;33.10
6843;DHT22;3460;52.028;8.916;2024-01-07T10:29:35;-1.30;51.40
6843;DHT22;3460;52.028;8.916;2024-01-07T10:32:02;-1.20;55.90
6843;DHT22;3460;52.028;8.916;2024-01-07T10:34:33;-1.10;43.90
6843;DHT22;3460;52.028;8.916;2024-01-07T10:37:01;-1.10;1.00
6843;DHT22;3460;52.028;8.916;2024-01-07T10:39:29;-1.20;1.00
6843;DHT22;3460;52.028;8.916;2024-01-07T10:41:56;-1.10;1.00
6843;DHT22;3460;52.028;8.916;2024-01-07T10:44:25;-1.10;1.00
6843;DHT22;3460;52.028;8.916;2024-01-07T10:46:54;-1.10;19.30
6843;DHT22;3460;52.028;8.916;2024-01-07T10:49:22;-1.00;1.00
6843;DHT22;3460;52.028;8.916;2024-01-07T10:52:03;-1.00;1.00
6843;DHT22;3460;52.028;8.916;2024-01-07T10:54:31;-1.00;1.00
6843;DHT22;3460;52.028;8.916;2024-01-07T10:57:01;-1.10;24.40
6843;DHT22;3460;52.028;8.916;2024-01-07T10:59:32;-1.10;99.90
6843;DHT22;3460;52.028;8.916;2024-01-07T11:02:00;-1.10;42.50
6843;DHT22;3460;52.028;8.916;2024-01-07T11:04:32;-1.00;99.90
6843;DHT22;3460;52.028;8.916;2024-01-07T11:07:15;-1.00;70.70
6843;DHT22;3460;52.028;8.916;2024-01-07T11:09:51;-1.10;99.90
6843;DHT22;3460;52.028;8.916;2024-01-07T11:12:21;-1.10;99.90
6843;DHT22;3460;52.028;8.916;2024-01-07T11:14:48;-1.00;99.90
6843;DHT22;3460;52.028;8.916;2024-01-07T11:17:39;-1.00;99.90
6843;DHT22;3460;52.028;8.916;2024-01-07T11:20:13;-1.00;1.00
6843;DHT22;3460;52.028;8.916;2024-01-07T11:22:42;-1.00;99.90
6843;DHT22;3460;52.028;8.916;2024-01-07T11:25:29;-1.10;99.90
6843;DHT22;3460;52.028;8.916;2024-01-07T11:27:57;-1.10;99.90
6843;DHT22;3460;52.028;8.916;2024-01-07T11:30:24;-1.00;99.90
6843;DHT22;3460;52.028;8.916;2024-01-07T11:32:57;-0.90;99.90
6843;DHT22;3460;52.028;8.916;2024-01-07T11:35:54;-0.90;49.70
6843;DHT22;3460;52.028;8.916;2024-01-07T11:38:23;-0.90;99.90
6843;DHT22;3460;52.028;8.916;2024-01-07T11:40:51;-0.80;99.90
6843;DHT22;3460;52.028;8.916;2024-01-07T11:43:18;-0.90;86.90
6843;DHT22;3460;52.028;8.916;2024-01-07T11:45:45;-0.80;99.90
6843;DHT22;3460;52.028;8.916;2024-01-07T11:48:12;-0.70;99.90
6843;DHT22;3460;52.028;8.916;2024-01-07T11:50:39;-0.60;99.90
6843;DHT22;3460;52.028;8.916;2024-01-07T11:53:07;-0.70;52.60
6843;DHT22;3460;52.028;8.916;2024-01-07T11:55:36;-0.70;99.90
6843;DHT22;3460;52.028;8.916;2024-01-07T11:58:03;-0.70;66.60
6843;DHT22;3460;52.028;8.916;2024-01-07T12:00:33;-0.70;97.50
6843;DHT22;3460;52.028;8.916;2024-01-07T12:03:00;-0.80;99.90
6843;DHT22;3460;52.028;8.916;2024-01-07T12:05:27;-0.80;99.90
6843;DHT22;3460;52.028;8.916;2024-01-07T12:07:54;-0.70;99.90
6843;DHT22;3460;52.028;8.916;2024-01-07T12:10:23;-0.60;99.90
6843;DHT22;3460;52.028;8.916;2024-01-07T12:12:51;-0.60;99.90
6843;DHT22;3460;52.028;8.916;2024-01-07T12:15:20;-0.50;99.90
6843;DHT22;3460;52.028;8.916;2024-01-07T12:17:57;-0.60;99.90
6843;DHT22;3460;52.028;8.916;2024-01-07T12:20:25;-0.60;99.90
6843;DHT22;3460;52.028;8.916;2024-01-07T12:22:51;-0.60;28.00
6843;DHT22;3460;52.028;8.916;2024-01-07T12:25:21;-0.70;34.30
6843;DHT22;3460;52.028;8.916;2024-01-07T12:27:50;-0.70;99.90
6843;DHT22;3460;52.028;8.916;2024-01-07T12:30:19;-0.70;99.90
6843;DHT22;3460;52.028;8.916;2024-01-07T12:32:46;-0.70;99.90
6843;DHT22;3460;52.028;8.916;2024-01-07T12:35:13;-0.70;99.90
6843;DHT22;3460;52.028;8.916;2024-01-07T12:37:40;-0.70;84.20
6843;DHT22;3460;52.028;8.916;2024-01-07T12:40:09;-0.70;99.90
6843;DHT22;3460;52.028;8.916;2024-01-07T12:42:37;-0.70;99.90
6843;DHT22;3460;52.028;8.916;2024-01-07T12:45:07;-0.70;99.90
6843;DHT22;3460;52.028;8.916;2024-01-07T12:47:34;-0.60;99.90
6843;DHT22;3460;52.028;8.916;2024-01-07T12:50:01;-0.60;99.90
6843;DHT22;3460;52.028;8.916;2024-01-07T12:52:28;-0.60;99.90
6843;DHT22;3460;52.028;8.916;2024-01-07T12:54:55;-0.70;99.90
6843;DHT22;3460;52.028;8.916;2024-01-07T12:57:22;-0.60;99.90
6843;DHT22;3460;52.028;8.916;2024-01-07T12:59:49;-0.60;99.90
6843;DHT22;3460;52.028;8.916;2024-01-07T13:02:17;-0.50;99.90
6843;DHT22;3460;52.028;8.916;2024-01-07T13:04:44;-0.50;99.90
6843;DHT22;3460;52.028;8.916;2024-01-07T13:07:10;-0.50;99.90
6843;DHT22;3460;52.028;8.916;2024-01-07T13:09:37;-0.50;99.90
6843;DHT22;3460;52.028;8.916;2024-01-07T13:12:04;-0.40;1.00
6843;DHT22;3460;52.028;8.916;2024-01-07T13:14:31;-0.30;99.90
6843;DHT22;3460;52.028;8.916;2024-01-07T13:16:58;-0.30;1.00
6843;DHT22;3460;52.028;8.916;2024-01-07T13:19:26;-0.30;99.90
6843;DHT22;3460;52.028;8.916;2024-01-07T13:21:53;-0.50;99.90
6843;DHT22;3460;52.028;8.916;2024-01-07T13:24:23;-0.50;1.00
6843;DHT22;3460;52.028;8.916;2024-01-07T13:26:50;-0.50;1.00
6843;DHT22;3460;52.028;8.916;2024-01-07T13:29:17;-0.50;1.00
6843;DHT22;3460;52.028;8.916;2024-01-07T13:31:43;-0.50;1.00
6843;DHT22;3460;52.028;8.916;2024-01-07T13:34:10;-0.50;1.00
6843;DHT22;3460;52.028;8.916;2024-01-07T13:36:41;-0.50;1.00
6843;DHT22;3460;52.028;8.916;2024-01-07T13:39:07;-0.50;1.00
6843;DHT22;3460;52.028;8.916;2024-01-07T13:41:35;-0.50;1.00
6843;DHT22;3460;52.028;8.916;2024-01-07T13:44:02;-0.50;1.00
6843;DHT22;3460;52.028;8.916;2024-01-07T13:46:29;-0.50;1.00
6843;DHT22;3460;52.028;8.916;2024-01-07T13:48:56;-0.60;1.00
6843;DHT22;3460;52.028;8.916;2024-01-07T13:51:23;-0.60;1.00
6843;DHT22;3460;52.028;8.916;2024-01-07T13:53:51;-0.60;1.00
6843;DHT22;3460;52.028;8.916;2024-01-07T13:56:18;-0.60;1.00
6843;DHT22;3460;52.028;8.916;2024-01-07T13:58:45;-0.60;18.10
6843;DHT22;3460;52.028;8.916;2024-01-07T14:01:12;-0.50;1.00
6843;DHT22;3460;52.028;8.916;2024-01-07T14:03:39;-0.50;1.00
6843;DHT22;3460;52.028;8.916;2024-01-07T14:06:07;-0.60;17.60
6843;DHT22;3460;52.028;8.916;2024-01-07T14:08:34;-0.60;12.80
6843;DHT22;3460;52.028;8.916;2024-01-07T14:11:02;-0.50;95.30
6843;DHT22;3460;52.028;8.916;2024-01-07T14:13:29;-0.50;34.80
6843;DHT22;3460;52.028;8.916;2024-01-07T14:15:56;-0.50;59.20
6843;DHT22;3460;52.028;8.916;2024-01-07T14:18:23;-0.50;92.40
6843;DHT22;3460;52.028;8.916;2024-01-07T14:20:49;-0.50;99.90
6843;DHT22;3460;52.028;8.916;2024-01-07T14:23:16;-0.50;66.30
6843;DHT22;3460;52.028;8.916;2024-01-07T14:25:43;-0.50;93.90
6843;DHT22;3460;52.028;8.916;2024-01-07T14:28:12;-0.50;48.20
6843;DHT22;3460;52.028;8.916;2024-01-07T14:30:38;-0.40;83.50
6843;DHT22;3460;52.028;8.916;2024-01-07T14:33:05;-0.40;93.90
6843;DHT22;3460;52.028;8.916;2024-01-07T14:35:33;-0.40;99.90
6843;DHT22;3460;52.028;8.916;2024-01-07T14:37:59;-0.30;99.90
6843;DHT22;3460;52.028;8.916;2024-01-07T14:40:26;-0.40;30.40
6843;DHT22;3460;52.028;8.916;2024-01-07T14:42:53;-0.50;1.00
6843;DHT22;3460;52.028;8.916;2024-01-07T14:45:26;-0.50;1.00
6843;DHT22;3460;52.028;8.916;2024-01-07T14:47:53;-0.50;5.40
6843;DHT22;3460;52.028;8.916;2024-01-07T14:50:20;-0.50;1.00
6843;DHT22;3460;52.028;8.916;2024-01-07T14:52:47;-0.50;1.00
6843;DHT22;3460;52.028;8.916;2024-01-07T14:55:14;-0.50;1.00
6843;DHT22;3460;52.028;8.916;2024-01-07T14:57:41;-0.50;1.00
6843;DHT22;3460;52.028;8.916;2024-01-07T15:00:09;-0.60;1.00
6843;DHT22;3460;52.028;8.916;2024-01-07T15:02:37;-0.60;1.00
6843;DHT22;3460;52.028;8.916;2024-01-07T15:05:05;-0.50;1.00
6843;DHT22;3460;52.028;8.916;2024-01-07T15:07:32;-0.50;1.00
6843;DHT22;3460;52.028;8.916;2024-01-07T15:09:59;-0.50;1.00
6843;DHT22;3460;52.028;8.916;2024-01-07T15:12:25;-0.40;1.00
6843;DHT22;3460;52.028;8.916;2024-01-07T15:15:01;-0.50;1.00
6843;DHT22;3460;52.028;8.916;2024-01-07T15:17:29;-0.50;1.00
6843;DHT22;3460;52.028;8.916;2024-01-07T15:19:57;-0.60;1.00
6843;DHT22;3460;52.028;8.916;2024-01-07T15:22:24;-0.60;1.00
6843;DHT22;3460;52.028;8.916;2024-01-07T15:24:51;-0.60;1.00
6843;DHT22;3460;52.028;8.916;2024-01-07T15:27:18;-0.50;1.00
6843;DHT22;3460;52.028;8.916;2024-01-07T15:29:45;-0.50;1.00
6843;DHT22;3460;52.028;8.916;2024-01-07T15:32:12;-0.50;1.00
6843;DHT22;3460;52.028;8.916;2024-01-07T15:34:40;-0.50;1.00
6843;DHT22;3460;52.028;8.916;2024-01-07T15:37:08;-0.50;1.00
6843;DHT22;3460;52.028;8.916;2024-01-07T15:39:35;-0.60;1.00
6843;DHT22;3460;52.028;8.916;2024-01-07T15:42:02;-0.60;1.00
6843;DHT22;3460;52.028;8.916;2024-01-07T15:44:29;-0.60;1.00
6843;DHT22;3460;52.028;8.916;2024-01-07T15:46:57;-0.60;1.00
6843;DHT22;3460;52.028;8.916;2024-01-07T15:49:23;-0.70;1.00
6843;DHT22;3460;52.028;8.916;2024-01-07T15:51:50;-0.70;1.00
6843;DHT22;3460;52.028;8.916;2024-01-07T15:54:18;-0.70;1.00
6843;DHT22;3460;52.028;8.916;2024-01-07T15:56:45;-0.80;1.00
6843;DHT22;3460;52.028;8.916;2024-01-07T15:59:12;-0.80;1.00
6843;DHT22;3460;52.028;8.916;2024-01-07T16:01:45;-0.80;1.00
6843;DHT22;3460;52.028;8.916;2024-01-07T16:04:12;-0.80;1.00
6843;DHT22;3460;52.028;8.916;2024-01-07T16:06:40;-0.80;1.00
6843;DHT22;3460;52.028;8.916;2024-01-07T16:09:08;-0.90;1.00
6843;DHT22;3460;52.028;8.916;2024-01-07T16:11:36;-0.90;1.00
6843;DHT22;3460;52.028;8.916;2024-01-07T16:14:03;-0.90;1.00
6843;DHT22;3460;52.028;8.916;2024-01-07T16:16:30;-1.00;1.00
6843;DHT22;3460;52.028;8.916;2024-01-07T16:18:56;-1.00;1.00
6843;DHT22;3460;52.028;8.916;2024-01-07T16:21:23;-1.00;1.00
6843;DHT22;3460;52.028;8.916;2024-01-07T16:23:50;-1.00;1.00
6843;DHT22;3460;52.028;8.916;2024-01-07T16:26:17;-1.00;1.00
6843;DHT22;3460;52.028;8.916;2024-01-07T16:28:45;-1.10;1.00
6843;DHT22;3460;52.028;8.916;2024-01-07T16:31:12;-1.10;1.00
6843;DHT22;3460;52.028;8.916;2024-01-07T16:33:39;-1.00;1.00
6843;DHT22;3460;52.028;8.916;2024-01-07T16:36:06;-1.00;1.00
6843;DHT22;3460;52.028;8.916;2024-01-07T16:38:33;-1.00;1.00
6843;DHT22;3460;52.028;8.916;2024-01-07T16:41:03;-1.00;1.00
6843;DHT22;3460;52.028;8.916;2024-01-07T16:43:31;-1.00;1.00
6843;DHT22;3460;52.028;8.916;2024-01-07T16:46:00;-1.00;1.00
6843;DHT22;3460;52.028;8.916;2024-01-07T16:48:27;-1.00;1.00
6843;DHT22;3460;52.028;8.916;2024-01-07T16:50:54;-1.10;1.00
6843;DHT22;3460;52.028;8.916;2024-01-07T16:53:21;-1.10;1.00
6843;DHT22;3460;52.028;8.916;2024-01-07T16:55:47;-1.10;1.00
6843;DHT22;3460;52.028;8.916;2024-01-07T16:58:14;-1.10;1.00
6843;DHT22;3460;52.028;8.916;2024-01-07T17:00:41;-1.10;1.00
6843;DHT22;3460;52.028;8.916;2024-01-07T17:03:09;-1.20;1.00
6843;DHT22;3460;52.028;8.916;2024-01-07T17:05:36;-1.20;1.00
6843;DHT22;3460;52.028;8.916;2024-01-07T17:08:03;-1.20;1.00
6843;DHT22;3460;52.028;8.916;2024-01-07T17:10:30;-1.30;1.00
6843;DHT22;3460;52.028;8.916;2024-01-07T17:12:57;-1.40;1.00
6843;DHT22;3460;52.028;8.916;2024-01-07T17:15:24;-1.40;1.00
6843;DHT22;3460;52.028;8.916;2024-01-07T17:17:50;-1.40;1.00
6843;DHT22;3460;52.028;8.916;2024-01-07T17:20:19;-1.40;1.00
6843;DHT22;3460;52.028;8.916;2024-01-07T17:22:46;-1.50;1.00
6843;DHT22;3460;52.028;8.916;2024-01-07T17:25:12;-1.50;1.00
6843;DHT22;3460;52.028;8.916;2024-01-07T17:27:39;-1.50;1.00
6843;DHT22;3460;52.028;8.916;2024-01-07T17:30:07;-1.50;1.00
6843;DHT22;3460;52.028;8.916;2024-01-07T17:32:34;-1.40;3.10
6843;DHT22;3460;52.028;8.916;2024-01-07T17:35:01;-1.40;1.00
6843;DHT22;3460;52.028;8.916;2024-01-07T17:37:29;-1.40;2.70
6843;DHT22;3460;52.028;8.916;2024-01-07T17:39:56;-1.40;13.50
6843;DHT22;3460;52.028;8.916;2024-01-07T17:42:24;-1.40;11.80
6843;DHT22;3460;52.028;8.916;2024-01-07T17:44:51;-1.40;15.10
6843;DHT22;3460;52.028;8.916;2024-01-07T17:47:18;-1.40;6.90
6843;DHT22;3460;52.028;8.916;2024-01-07T17:49:44;-1.40;6.50
6843;DHT22;3460;52.028;8.916;2024-01-07T17:52:11;-1.40;1.00
6843;DHT22;3460;52.028;8.916;2024-01-07T17:54:39;-1.40;11.10
6843;DHT22;3460;52.028;8.916;2024-01-07T17:57:07;-1.40;1.90
6843;DHT22;3460;52.028;8.916;2024-01-07T17:59:34;-1.30;15.10
6843;DHT22;3460;52.028;8.916;2024-01-07T18:02:02;-1.40;1.00
6843;DHT22;3460;52.028;8.916;2024-01-07T18:04:32;-1.30;10.30
6843;DHT22;3460;52.028;8.916;2024-01-07T18:06:59;-1.30;1.00
6843;DHT22;3460;52.028;8.916;2024-01-07T18:09:27;-1.30;1.00
6843;DHT22;3460;52.028;8.916;2024-01-07T18:11:55;-1.30;1.00
6843;DHT22;3460;52.028;8.916;2024-01-07T18:14:22;-1.30;1.00
6843;DHT22;3460;52.028;8.916;2024-01-07T18:16:49;-1.30;1.00
6843;DHT22;3460;52.028;8.916;2024-01-07T18:19:15;-1.20;1.00
6843;DHT22;3460;52.028;8.916;2024-01-07T18:21:42;-1.20;1.00
6843;DHT22;3460;52.028;8.916;2024-01-07T18:24:10;-1.10;1.00
6843;DHT22;3460;52.028;8.916;2024-01-07T18:26:36;-1.10;1.00
6843;DHT22;3460;52.028;8.916;2024-01-07T18:29:05;-1.10;1.00
6843;DHT22;3460;52.028;8.916;2024-01-07T18:31:34;-1.20;1.00
6843;DHT22;3460;52.028;8.916;2024-01-07T18:34:05;-1.10;1.00
6843;DHT22;3460;52.028;8.916;2024-01-07T18:36:31;-1.10;1.00
6843;DHT22;3460;52.028;8.916;2024-01-07T18:38:58;-1.10;1.00
6843;DHT22;3460;52.028;8.916;2024-01-07T18:41:25;-1.00;1.00
6843;DHT22;3460;52.028;8.916;2024-01-07T18:43:52;-1.00;1.00
6843;DHT22;3460;52.028;8.916;2024-01-07T18:46:20;-1.00;45.40
6843;DHT22;3460;52.028;8.916;2024-01-07T18:48:47;-1.00;1.00
6843;DHT22;3460;52.028;8.916;2024-01-07T18:51:14;-1.00;3.70
6843;DHT22;3460;52.028;8.916;2024-01-07T18:53:40;-1.00;1.00
6843;DHT22;3460;52.028;8.916;2024-01-07T18:56:08;-1.10;46.10
6843;DHT22;3460;52.028;8.916;2024-01-07T18:58:35;-1.10;5.00
6843;DHT22;3460;52.028;8.916;2024-01-07T19:01:05;-1.10;74.10
6843;DHT22;3460;52.028;8.916;2024-01-07T19:03:33;-1.20;99.90
6843;DHT22;3460;52.028;8.916;2024-01-07T19:06:00;-1.10;99.90
6843;DHT22;3460;52.028;8.916;2024-01-07T19:08:28;-1.00;99.90
6843;DHT22;3460;52.028;8.916;2024-01-07T19:10:54;-1.10;99.90
6843;DHT22;3460;52.028;8.916;2024-01-07T19:13:21;-1.00;71.10
6843;DHT22;3460;52.028;8.916;2024-01-07T19:15:49;-1.10;99.90
6843;DHT22;3460;52.028;8.916;2024-01-07T19:18:16;-1.10;99.90
6843;DHT22;3460;52.028;8.916;2024-01-07T19:20:44;-1.10;99.90
6843;DHT22;3460;52.028;8.916;2024-01-07T19:23:12;-1.10;99.90
6843;DHT22;3460;52.028;8.916;2024-01-07T19:25:38;-1.10;99.90
6843;DHT22;3460;52.028;8.916;2024-01-07T19:28:05;-1.10;65.50
6843;DHT22;3460;52.028;8.916;2024-01-07T19:30:32;-1.20;99.00
6843;DHT22;3460;52.028;8.916;2024-01-07T19:32:59;-1.20;99.90
6843;DHT22;3460;52.028;8.916;2024-01-07T19:35:26;-1.20;77.40
6843;DHT22;3460;52.028;8.916;2024-01-07T19:37:54;-1.30;50.20
6843;DHT22;3460;52.028;8.916;2024-01-07T19:40:23;-1.40;99.90
6843;DHT22;3460;52.028;8.916;2024-01-07T19:42:50;-1.40;97.00
6843;DHT22;3460;52.028;8.916;2024-01-07T19:45:18;-1.30;85.30
6843;DHT22;3460;52.028;8.916;2024-01-07T19:47:45;-1.50;37.50
6843;DHT22;3460;52.028;8.916;2024-01-07T19:50:12;-1.60;22.20
6843;DHT22;3460;52.028;8.916;2024-01-07T19:52:39;-1.60;94.00
6843;DHT22;3460;52.028;8.916;2024-01-07T19:55:09;-1.60;47.20
6843;DHT22;3460;52.028;8.916;2024-01-07T19:57:35;-1.60;99.90
6843;DHT22;3460;52.028;8.916;2024-01-07T20:00:03;-1.50;99.90
6843;DHT22;3460;52.028;8.916;2024-01-07T20:02:30;-1.50;99.90
6843;DHT22;3460;52.028;8.916;2024-01-07T20:04:56;-1.50;99.90
6843;DHT22;3460;52.028;8.916;2024-01-07T20:07:24;-1.50;93.40
6843;DHT22;3460;52.028;8.916;2024-01-07T20:09:50;-1.60;44.20
6843;DHT22;3460;52.028;8.916;2024-01-07T20:12:18;-1.60;98.30
6843;DHT22;3460;52.028;8.916;2024-01-07T20:14:45;-1.60;99.90
6843;DHT22;3460;52.028;8.916;2024-01-07T20:17:12;-1.50;99.90
6843;DHT22;3460;52.028;8.916;2024-01-07T20:19:39;-1.60;95.20
6843;DHT22;3460;52.028;8.916;2024-01-07T20:22:06;-1.70;99.90
6843;DHT22;3460;52.028;8.916;2024-01-07T20:24:34;-1.80;99.90
6843;DHT22;3460;52.028;8.916;2024-01-07T20:27:03;-1.80;99.90
6843;DHT22;3460;52.028;8.916;2024-01-07T20:29:32;-1.80;99.90
6843;DHT22;3460;52.028;8.916;2024-01-07T20:32:00;-1.80;99.90
6843;DHT22;3460;52.028;8.916;2024-01-07T20:34:27;-1.80;99.90
6843;DHT22;3460;52.028;8.916;2024-01-07T20:36:54;-1.70;99.90
6843;DHT22;3460;52.028;8.916;2024-01-07T20:39:21;-1.70;99.90
6843;DHT22;3460;52.028;8.916;2024-01-07T20:41:50;-1.70;98.00
6843;DHT22;3460;52.028;8.916;2024-01-07T20:44:17;-1.70;99.90
6843;DHT22;3460;52.028;8.916;2024-01-07T20:46:45;-1.80;89.00
6843;DHT22;3460;52.028;8.916;2024-01-07T20:49:12;-1.80;39.20
6843;DHT22;3460;52.028;8.916;2024-01-07T20:51:39;-1.80;55.00
6843;DHT22;3460;52.028;8.916;2024-01-07T20:54:06;-1.80;52.70
6843;DHT22;3460;52.028;8.916;2024-01-07T20:56:35;-1.80;43.50
6843;DHT22;3460;52.028;8.916;2024-01-07T20:59:02;-1.80;1.00
6843;DHT22;3460;52.028;8.916;2024-01-07T21:01:29;-1.90;1.00
6843;DHT22;3460;52.028;8.916;2024-01-07T21:04:00;-1.90;1.00
6843;DHT22;3460;52.028;8.916;2024-01-07T21:06:26;-1.90;1.00
6843;DHT22;3460;52.028;8.916;2024-01-07T21:08:53;-2.00;1.00
6843;DHT22;3460;52.028;8.916;2024-01-07T21:11:20;-2.10;1.00
6843;DHT22;3460;52.028;8.916;2024-01-07T21:13:47;-2.10;1.00
6843;DHT22;3460;52.028;8.916;2024-01-07T21:16:14;-2.00;1.00
6843;DHT22;3460;52.028;8.916;2024-01-07T21:18:41;-2.00;1.00
6843;DHT22;3460;52.028;8.916;2024-01-07T21:21:09;-2.00;1.00
6843;DHT22;3460;52.028;8.916;2024-01-07T21:23:36;-2.00;1.00
6843;DHT22;3460;52.028;8.916;2024-01-07T21:26:04;-2.00;1.00
6843;DHT22;3460;52.028;8.916;2024-01-07T21:28:31;-2.10;1.00
6843;DHT22;3460;52.028;8.916;2024-01-07T21:30:58;-2.20;1.00
6843;DHT22;3460;52.028;8.916;2024-01-07T21:33:28;-2.20;1.00
6843;DHT22;3460;52.028;8.916;2024-01-07T21:35:54;-2.20;1.00
6843;DHT22;3460;52.028;8.916;2024-01-07T21:38:25;-2.20;1.00
6843;DHT22;3460;52.028;8.916;2024-01-07T21:40:52;-2.30;1.00
6843;DHT22;3460;52.028;8.916;2024-01-07T21:43:21;-2.30;1.00
6843;DHT22;3460;52.028;8.916;2024-01-07T21:45:48;-2.40;1.00
6843;DHT22;3460;52.028;8.916;2024-01-07T21:48:15;-2.40;1.00
6843;DHT22;3460;52.028;8.916;2024-01-07T21:50:42;-2.30;1.00
6843;DHT22;3460;52.028;8.916;2024-01-07T21:53:09;-2.40;1.00
6843;DHT22;3460;52.028;8.916;2024-01-07T21:55:37;-2.50;1.00
6843;DHT22;3460;52.028;8.916;2024-01-07T21:58:06;-2.50;1.00
6843;DHT22;3460;52.028;8.916;2024-01-07T22:00:33;-2.50;7.00
6843;DHT22;3460;52.028;8.916;2024-01-07T22:03:00;-2.40;12.20
6843;DHT22;3460;52.028;8.916;2024-01-07T22:05:27;-2.50;1.00
6843;DHT22;3460;52.028;8.916;2024-01-07T22:07:54;-2.50;84.40
6843;DHT22;3460;52.028;8.916;2024-01-07T22:10:21;-2.50;1.00
6843;DHT22;3460;52.028;8.916;2024-01-07T22:12:49;-2.50;11.80
6843;DHT22;3460;52.028;8.916;2024-01-07T22:15:16;-2.60;46.00
6843;DHT22;3460;52.028;8.916;2024-01-07T22:17:43;-2.60;55.60
6843;DHT22;3460;52.028;8.916;2024-01-07T22:20:10;-2.60;99.50
6843;DHT22;3460;52.028;8.916;2024-01-07T22:22:37;-2.60;99.90
6843;DHT22;3460;52.028;8.916;2024-01-07T22:25:04;-2.60;99.90
6843;DHT22;3460;52.028;8.916;2024-01-07T22:27:32;-2.70;99.90
6843;DHT22;3460;52.028;8.916;2024-01-07T22:30:01;-2.70;99.90
6843;DHT22;3460;52.028;8.916;2024-01-07T22:32:28;-2.60;99.90
6843;DHT22;3460;52.028;8.916;2024-01-07T22:34:55;-2.60;99.90
6843;DHT22;3460;52.028;8.916;2024-01-07T22:37:22;-2.60;99.90
6843;DHT22;3460;52.028;8.916;2024-01-07T22:39:49;-2.60;99.90
6843;DHT22;3460;52.028;8.916;2024-01-07T22:42:16;-2.50;99.90
6843;DHT22;3460;52.028;8.916;2024-01-07T22:44:43;-2.50;99.90
6843;DHT22;3460;52.028;8.916;2024-01-07T22:47:11;-2.50;99.90